Time;durP1;ratioP1;P1;durP2;ratioP2;P2;SDS_P1;SDS_P2;PMS_P1;PMS_P2;Temp;Humidity;BMP_temperature;BMP_pressure;BME280_temperature;BME280_humidity;BME280_pressure;Samples;Min_cycle;Max_cycle;Signal;HPM_P1;HPM_P2
2022/01/02 00:01:52;;;;;;;4.72;0.95;;;27.30;95.90;;;;;;4965400;28;20031;-73
2022/01/02 00:04:22;;;;;;;8.05;1.05;;;27.30;96.50;;;;;;4964406;28;20050;-74
2022/01/02 00:06:54;;;;;;;7.38;2.17;;;27.40;96.90;;;;;;4961719;28;20015;-73
2022/01/02 00:09:34;;;;;;;6.50;1.10;;;27.50;97.20;;;;;;4963641;28;20086;-73
2022/01/02 00:12:09;;;;;;;6.90;1.00;;;27.50;97.20;;;;;;4966509;28;20141;-73
2022/01/02 00:14:42;;;;;;;9.40;1.27;;;27.70;97.30;;;;;;4967138;28;20030;-73
2022/01/02 00:17:09;;;;;;;9.40;1.63;;;27.60;97.10;;;;;;4964797;28;20027;-74
2022/01/02 00:19:45;;;;;;;6.07;1.02;;;27.60;97.40;;;;;;4966223;28;20088;-75
2022/01/02 00:22:16;;;;;;;9.45;1.70;;;27.50;97.50;;;;;;4961826;28;20025;-73
2022/01/02 00:24:44;;;;;;;5.13;1.33;;;27.50;97.70;;;;;;4964697;28;20040;-72
2022/01/02 00:27:14;;;;;;;9.02;1.30;;;27.60;97.60;;;;;;4992995;28;20034;-75
2022/01/02 00:29:43;;;;;;;10.75;1.38;;;27.60;97.60;;;;;;4964441;28;20032;-71
2022/01/02 00:32:12;;;;;;;5.63;1.00;;;27.60;96.90;;;;;;4964750;28;20030;-74
2022/01/02 00:34:41;;;;;;;12.20;1.73;;;27.60;97.10;;;;;;4965691;28;20023;-73
2022/01/02 00:37:09;;;;;;;5.32;0.88;;;27.60;97.70;;;;;;4964433;28;20022;-73
2022/01/02 00:39:37;;;;;;;5.85;1.33;;;27.70;97.30;;;;;;4965230;28;20123;-72
2022/01/02 00:42:15;;;;;;;9.07;1.33;;;27.80;96.80;;;;;;4964947;28;20054;-74
2022/01/02 00:44:54;;;;;;;5.07;0.77;;;27.80;95.90;;;;;;4967882;28;20011;-74
2022/01/02 00:47:27;;;;;;;8.27;1.10;;;28.00;95.30;;;;;;4965831;28;20031;-74
2022/01/02 00:50:03;;;;;;;5.30;0.80;;;28.20;95.50;;;;;;4964981;28;20060;-74
2022/01/02 00:52:34;;;;;;;6.55;0.80;;;28.30;95.30;;;;;;4964645;28;20031;-74
2022/01/02 00:55:07;;;;;;;5.65;0.90;;;28.40;94.50;;;;;;4965360;28;20102;-75
2022/01/02 00:57:37;;;;;;;5.35;1.10;;;28.30;94.90;;;;;;4964044;28;20031;-73
2022/01/02 01:00:16;;;;;;;8.20;1.48;;;28.30;94.80;;;;;;4963412;28;20417;-73
2022/01/02 01:02:53;;;;;;;7.40;1.38;;;28.50;94.20;;;;;;4962736;28;20019;-72
2022/01/02 01:05:27;;;;;;;5.00;0.70;;;28.60;94.10;;;;;;4964771;28;20388;-72
2022/01/02 01:08:02;;;;;;;3.78;0.60;;;28.60;93.80;;;;;;4965490;28;20041;-72
2022/01/02 01:10:32;;;;;;;6.68;1.33;;;28.70;93.50;;;;;;4962815;28;20024;-72
2022/01/02 01:13:03;;;;;;;7.35;0.93;;;28.90;93.50;;;;;;4962835;28;20189;-75
2022/01/02 01:15:33;;;;;;;6.57;1.08;;;29.00;93.50;;;;;;4965124;28;20094;-71
2022/01/02 01:18:03;;;;;;;5.20;0.90;;;29.10;93.60;;;;;;4963831;28;20726;-69
2022/01/02 01:20:34;;;;;;;7.82;1.10;;;29.20;92.90;;;;;;4963450;28;20035;-73
2022/01/02 01:23:02;;;;;;;8.23;1.13;;;29.00;93.30;;;;;;4962813;28;20027;-72
2022/01/02 01:25:29;;;;;;;6.68;1.45;;;29.00;93.50;;;;;;4964620;28;20428;-72
2022/01/02 01:27:57;;;;;;;13.05;1.98;;;29.20;93.90;;;;;;4962368;28;20736;-73
2022/01/02 01:30:27;;;;;;;7.80;1.50;;;29.20;93.60;;;;;;4964095;28;20483;-75
2022/01/02 01:32:55;;;;;;;9.73;1.42;;;29.30;94.00;;;;;;4994333;28;20031;-74
2022/01/02 01:35:23;;;;;;;12.07;1.65;;;29.40;94.10;;;;;;4965295;28;20038;-74
2022/01/02 01:37:51;;;;;;;10.75;2.53;;;29.40;93.00;;;;;;4962434;28;20472;-74
2022/01/02 01:40:19;;;;;;;10.43;1.45;;;29.40;93.00;;;;;;4964720;28;20019;-71
2022/01/02 01:43:00;;;;;;;11.60;2.03;;;29.40;93.30;;;;;;4965354;28;20097;-73
2022/01/02 01:45:28;;;;;;;10.30;1.70;;;29.50;92.90;;;;;;4965021;28;20038;-71
2022/01/02 01:47:58;;;;;;;8.57;1.27;;;29.60;92.90;;;;;;4961456;28;20420;-74
2022/01/02 01:50:35;;;;;;;10.55;2.13;;;29.70;92.50;;;;;;4964556;28;20106;-71
2022/01/02 01:53:02;;;;;;;6.82;1.63;;;29.80;92.80;;;;;;4965461;28;20085;-72
2022/01/02 01:55:30;;;;;;;8.75;1.77;;;29.80;92.50;;;;;;4964322;28;20027;-73
2022/01/02 01:57:58;;;;;;;11.25;2.30;;;29.80;92.50;;;;;;4961963;28;20558;-72
2022/01/02 02:00:25;;;;;;;9.65;1.75;;;29.90;92.90;;;;;;4967054;28;20034;-73
2022/01/02 02:02:53;;;;;;;7.60;1.20;;;30.30;91.50;;;;;;4972550;28;20029;-71
2022/01/02 02:05:21;;;;;;;7.43;2.33;;;30.40;90.50;;;;;;4963341;28;20030;-71
2022/01/02 02:07:48;;;;;;;7.60;1.73;;;30.50;90.60;;;;;;4963050;28;20024;-72
2022/01/02 02:10:39;;;;;;;8.15;1.52;;;30.60;90.90;;;;;;4962000;28;20110;-72
2022/01/02 02:13:07;;;;;;;7.75;1.33;;;30.60;90.20;;;;;;4963539;28;20038;-71
2022/01/02 02:15:35;;;;;;;7.45;1.23;;;30.40;90.40;;;;;;4962277;28;20023;-72
2022/01/02 02:18:03;;;;;;;14.82;1.92;;;30.40;91.20;;;;;;4961977;28;20223;-71
2022/01/02 02:20:33;;;;;;;8.93;2.25;;;30.50;90.80;;;;;;4964803;28;20041;-72
2022/01/02 02:23:01;;;;;;;7.63;1.27;;;30.50;90.10;;;;;;4959880;28;20023;-72
2022/01/02 02:25:35;;;;;;;7.80;1.50;;;30.50;90.80;;;;;;4962985;28;20046;-72
2022/01/02 02:28:08;;;;;;;10.90;2.63;;;30.80;91.10;;;;;;4960968;28;20015;-74
2022/01/02 02:30:37;;;;;;;7.63;1.55;;;30.90;90.30;;;;;;4962414;28;20429;-70
2022/01/02 02:33:06;;;;;;;8.90;1.98;;;31.10;90.40;;;;;;4960203;28;20051;-73
2022/01/02 02:35:36;;;;;;;14.48;2.38;;;31.30;89.80;;;;;;4962868;28;20023;-72
2022/01/02 02:38:06;;;;;;;10.60;1.88;;;31.30;89.50;;;;;;4961150;28;20015;-71
2022/01/02 02:40:34;;;;;;;14.60;2.58;;;31.30;89.60;;;;;;4962822;28;20027;-70
2022/01/02 02:43:08;;;;;;;10.45;1.45;;;31.10;90.00;;;;;;4961332;28;20015;-74
2022/01/02 02:51:05;;;;;;;12.85;2.03;;;31.40;90.70;;;;;;4961945;28;20027;-69
2022/01/02 02:53:35;;;;;;;8.93;1.58;;;31.40;90.70;;;;;;4962055;28;20065;-69
2022/01/02 02:56:12;;;;;;;11.93;2.25;;;31.40;90.50;;;;;;4962007;28;20030;-70
2022/01/02 02:59:01;;;;;;;10.18;2.10;;;31.40;90.70;;;;;;4962010;28;20034;-69
2022/01/02 03:01:30;;;;;;;11.32;1.88;;;31.40;91.20;;;;;;4967968;28;20038;-69
2022/01/02 03:03:57;;;;;;;11.85;2.05;;;31.70;90.40;;;;;;4967394;28;20038;-69
2022/01/02 03:06:25;;;;;;;11.65;2.15;;;31.60;90.20;;;;;;4968448;28;20023;-69
2022/01/02 03:35:49;;;;;;;9.23;1.70;;;33.50;85.10;;;;;;4967971;28;20049;-72
2022/01/02 03:38:16;;;;;;;7.55;1.60;;;33.50;83.70;;;;;;4969197;28;20113;-71
2022/01/02 03:40:44;;;;;;;9.95;1.65;;;33.60;84.60;;;;;;4968189;28;20031;-71
2022/01/02 03:43:11;;;;;;;12.27;2.85;;;33.80;83.30;;;;;;4967666;28;20023;-72
2022/01/02 03:45:39;;;;;;;11.60;2.33;;;33.90;83.00;;;;;;4968843;28;20484;-72
2022/01/02 03:48:06;;;;;;;8.85;1.73;;;34.10;81.60;;;;;;4959961;28;20019;-72
2022/01/02 03:50:34;;;;;;;7.60;1.55;;;34.00;81.10;;;;;;4961264;28;20081;-71
2022/01/02 03:53:01;;;;;;;9.77;2.22;;;34.20;80.80;;;;;;4973202;28;20093;-72
2022/01/02 03:55:29;;;;;;;8.82;1.88;;;34.50;80.80;;;;;;4977889;28;20027;-71
2022/01/02 03:57:56;;;;;;;10.63;1.88;;;34.30;80.00;;;;;;4977798;28;20043;-74
2022/01/02 04:00:24;;;;;;;10.80;2.03;;;34.10;81.10;;;;;;4978133;28;20037;-71
2022/01/02 04:02:51;;;;;;;13.32;1.95;;;34.30;79.70;;;;;;4977883;28;20058;-72
2022/01/02 04:05:18;;;;;;;11.25;3.08;;;34.20;79.90;;;;;;4977473;28;20025;-71
2022/01/02 04:07:46;;;;;;;7.07;1.70;;;34.20;79.40;;;;;;4977875;28;20102;-72
2022/01/02 04:10:16;;;;;;;12.90;2.60;;;34.20;79.70;;;;;;4976872;28;20081;-72
2022/01/02 04:12:44;;;;;;;10.13;2.13;;;34.80;79.20;;;;;;4971236;28;20054;-73
2022/01/02 04:15:13;;;;;;;10.85;2.47;;;34.80;78.90;;;;;;5003094;28;20031;-71
2022/01/02 04:17:42;;;;;;;12.48;2.35;;;34.70;78.70;;;;;;4974553;28;20039;-72
2022/01/02 04:20:15;;;;;;;15.10;2.53;;;34.80;78.60;;;;;;4973347;28;20030;-71
2022/01/02 04:22:43;;;;;;;10.52;1.90;;;34.60;79.20;;;;;;4972831;28;20027;-70
2022/01/02 04:25:12;;;;;;;10.30;3.25;;;34.50;78.90;;;;;;4968297;28;20046;-73
2022/01/02 04:27:39;;;;;;;9.18;1.80;;;34.40;79.30;;;;;;4974250;28;20030;-72
2022/01/02 04:30:10;;;;;;;10.07;1.90;;;34.50;79.40;;;;;;4974313;28;20026;-70
2022/01/02 04:32:37;;;;;;;13.15;2.08;;;34.70;78.60;;;;;;4959188;28;20066;-71
2022/01/02 04:35:05;;;;;;;10.93;2.25;;;34.20;79.70;;;;;;4962363;28;20053;-72
2022/01/02 04:37:33;;;;;;;13.05;2.65;;;34.10;79.90;;;;;;4967088;28;20101;-72
2022/01/02 04:40:01;;;;;;;9.10;2.15;;;34.40;79.60;;;;;;4968350;28;20062;-72
2022/01/02 04:42:28;;;;;;;12.95;2.70;;;34.30;78.00;;;;;;4969365;28;20147;-74
2022/01/02 04:44:55;;;;;;;11.43;2.60;;;34.10;79.20;;;;;;4972364;28;20110;-73
2022/01/02 04:47:23;;;;;;;11.52;2.45;;;34.40;79.20;;;;;;4971923;28;20538;-72
2022/01/02 04:49:50;;;;;;;11.75;2.20;;;34.30;77.30;;;;;;4968821;28;20019;-72
2022/01/02 04:52:17;;;;;;;10.05;1.55;;;34.10;78.00;;;;;;4969698;28;20034;-72
2022/01/02 04:54:44;;;;;;;10.07;1.77;;;34.00;77.70;;;;;;4969313;28;20023;-73
2022/01/02 04:57:12;;;;;;;10.15;1.58;;;34.20;77.10;;;;;;4968594;28;20534;-72
2022/01/02 04:59:39;;;;;;;8.50;2.05;;;33.90;78.60;;;;;;4969550;28;20035;-72
2022/01/02 05:02:06;;;;;;;6.80;1.40;;;33.80;79.50;;;;;;4970148;28;20110;-72
2022/01/02 05:04:34;;;;;;;11.05;1.98;;;34.00;78.60;;;;;;4969696;28;20039;-73
2022/01/02 05:07:01;;;;;;;7.82;2.05;;;34.20;77.00;;;;;;4969234;28;20035;-72
2022/01/02 05:09:28;;;;;;;6.78;1.92;;;34.20;77.30;;;;;;4968857;28;20022;-72
2022/01/02 05:11:55;;;;;;;7.00;1.50;;;34.20;77.20;;;;;;4968964;28;20045;-73
2022/01/02 05:14:23;;;;;;;11.43;2.50;;;34.60;76.30;;;;;;4969018;28;20033;-71
2022/01/02 05:16:50;;;;;;;4.68;1.02;;;34.80;75.10;;;;;;4967509;28;20130;-71
2022/01/02 05:19:17;;;;;;;9.63;1.80;;;34.80;75.10;;;;;;4967167;28;20382;-73
2022/01/02 05:21:45;;;;;;;12.48;2.53;;;34.50;76.20;;;;;;4968864;28;20037;-72
2022/01/02 05:24:12;;;;;;;8.65;2.20;;;34.40;76.50;;;;;;4968808;28;20081;-71
2022/01/02 05:26:40;;;;;;;8.52;2.15;;;34.20;77.20;;;;;;4967082;28;20488;-73
2022/01/02 05:29:07;;;;;;;11.93;1.85;;;34.00;76.90;;;;;;4967628;28;20027;-73
2022/01/02 05:31:34;;;;;;;10.20;2.17;;;33.90;76.40;;;;;;4967713;28;20022;-72
2022/01/02 05:34:02;;;;;;;10.02;1.55;;;33.90;76.40;;;;;;4968012;28;20034;-72
2022/01/02 05:36:29;;;;;;;8.75;1.77;;;33.90;76.80;;;;;;4968795;28;20026;-72
2022/01/02 05:38:56;;;;;;;10.23;1.73;;;33.90;76.30;;;;;;4969048;28;20031;-72
2022/01/02 05:41:26;;;;;;;9.38;1.60;;;33.90;75.70;;;;;;4969000;28;20098;-73
2022/01/02 05:43:55;;;;;;;10.45;2.38;;;33.60;75.70;;;;;;4968719;28;20038;-72
2022/01/02 05:46:23;;;;;;;9.13;1.73;;;33.30;76.10;;;;;;4969125;28;20019;-74
2022/01/02 05:48:50;;;;;;;8.30;1.52;;;33.00;76.10;;;;;;4968785;28;20157;-71
2022/01/02 05:51:18;;;;;;;7.72;2.00;;;32.70;77.90;;;;;;4967944;28;20023;-71
2022/01/02 05:53:45;;;;;;;8.80;1.70;;;32.50;77.50;;;;;;4967649;28;20597;-72
2022/01/02 05:56:13;;;;;;;7.95;1.33;;;32.80;76.10;;;;;;4971996;28;20106;-71
2022/01/02 05:58:40;;;;;;;8.98;1.92;;;32.50;77.30;;;;;;4969391;28;20095;-70
2022/01/02 06:01:07;;;;;;;8.98;2.22;;;32.30;77.60;;;;;;4972137;28;20483;-73
2022/01/02 06:03:35;;;;;;;10.52;2.10;;;32.00;78.00;;;;;;4972764;28;20022;-70
2022/01/02 06:06:03;;;;;;;7.60;1.92;;;31.60;78.80;;;;;;4972090;28;20022;-71
2022/01/02 06:08:30;;;;;;;10.38;3.15;;;31.60;78.60;;;;;;4973242;28;20154;-70
2022/01/02 06:10:58;;;;;;;9.23;3.30;;;31.40;79.40;;;;;;4973234;28;20062;-69
2022/01/02 06:13:25;;;;;;;14.50;4.70;;;31.30;80.70;;;;;;4972889;28;20035;-71
2022/01/02 06:15:53;;;;;;;9.60;3.38;;;31.30;79.80;;;;;;4971993;28;20109;-71
2022/01/02 06:18:20;;;;;;;8.90;2.10;;;31.20;79.20;;;;;;4970229;28;20743;-70
2022/01/02 06:20:48;;;;;;;8.07;1.25;;;31.00;79.10;;;;;;4970880;28;20019;-71
2022/01/02 06:23:16;;;;;;;14.13;1.60;;;30.90;79.10;;;;;;4971346;28;20109;-72
2022/01/02 06:25:47;;;;;;;8.45;1.83;;;30.70;80.10;;;;;;4971601;28;20159;-72
2022/01/02 06:28:14;;;;;;;12.13;2.00;;;30.70;80.70;;;;;;4971586;28;20054;-72
2022/01/02 06:30:41;;;;;;;9.48;1.52;;;30.60;81.60;;;;;;4971454;28;20258;-71
2022/01/02 06:33:09;;;;;;;9.20;1.45;;;30.60;82.10;;;;;;4973302;28;20037;-71
2022/01/02 06:35:36;;;;;;;10.13;1.77;;;30.60;81.60;;;;;;4972873;28;20026;-70
2022/01/02 06:38:18;;;;;;;8.43;2.10;;;30.60;82.60;;;;;;4973615;28;20034;-70
2022/01/02 06:40:46;;;;;;;6.72;1.88;;;30.50;82.80;;;;;;4973700;28;20038;-71
2022/01/02 06:43:16;;;;;;;9.60;1.70;;;30.40;83.40;;;;;;4972656;28;20057;-71
2022/01/02 06:45:44;;;;;;;16.67;2.88;;;30.40;83.70;;;;;;4973600;28;20472;-72
2022/01/02 06:48:12;;;;;;;13.48;2.88;;;30.20;84.30;;;;;;4973670;28;20038;-70
2022/01/02 06:50:40;;;;;;;10.25;1.88;;;30.20;84.70;;;;;;4973238;28;20383;-70
2022/01/02 06:53:08;;;;;;;11.05;2.10;;;30.20;85.10;;;;;;4973435;28;20052;-69
2022/01/02 06:55:36;;;;;;;11.60;2.53;;;30.00;85.40;;;;;;4973179;28;20015;-71
2022/01/02 06:58:05;;;;;;;13.00;2.08;;;29.70;86.30;;;;;;4973509;28;20125;-70
2022/01/02 07:00:33;;;;;;;10.93;2.42;;;29.60;87.30;;;;;;4973391;28;20027;-72
2022/01/02 07:03:00;;;;;;;10.98;1.80;;;29.80;86.70;;;;;;4973321;28;20057;-70
2022/01/02 07:05:28;;;;;;;11.95;1.90;;;29.60;88.00;;;;;;4973340;28;20027;-72
2022/01/02 07:07:55;;;;;;;12.38;2.63;;;29.40;88.50;;;;;;4973292;28;20023;-71
2022/01/02 07:10:22;;;;;;;12.15;2.55;;;29.20;88.30;;;;;;4973115;28;20495;-70
2022/01/02 07:12:50;;;;;;;15.50;2.75;;;29.20;89.70;;;;;;4973153;28;20038;-71
2022/01/02 07:15:17;;;;;;;12.93;2.20;;;29.40;89.70;;;;;;4973097;28;20509;-72
2022/01/02 07:17:45;;;;;;;14.18;2.15;;;29.50;90.20;;;;;;4973429;28;20022;-70
2022/01/02 07:20:13;;;;;;;12.85;2.45;;;29.30;90.10;;;;;;4973170;28;20431;-71
2022/01/02 07:22:42;;;;;;;13.27;2.75;;;29.20;90.40;;;;;;4973321;28;20033;-71
2022/01/02 07:25:10;;;;;;;13.38;2.03;;;29.10;90.70;;;;;;4972866;28;20078;-73
2022/01/02 07:27:38;;;;;;;14.45;3.08;;;29.10;90.70;;;;;;4972717;28;20111;-72
2022/01/02 07:30:07;;;;;;;11.23;2.05;;;28.90;90.60;;;;;;4972925;28;20492;-72
2022/01/02 07:32:35;;;;;;;13.32;2.65;;;28.70;90.60;;;;;;4972756;28;20483;-71
2022/01/02 07:35:04;;;;;;;12.02;1.92;;;28.50;90.70;;;;;;4972887;28;20027;-72
2022/01/02 07:37:31;;;;;;;15.88;2.63;;;28.30;91.50;;;;;;4972872;28;20030;-73
2022/01/02 07:39:58;;;;;;;16.85;2.65;;;28.20;92.00;;;;;;4972511;28;20015;-75
2022/01/02 07:42:26;;;;;;;12.95;3.00;;;28.20;92.00;;;;;;4972909;28;20117;-72
2022/01/02 07:44:53;;;;;;;9.02;1.48;;;28.00;91.90;;;;;;4971470;28;20165;-71
2022/01/02 07:47:20;;;;;;;18.48;2.53;;;27.90;91.90;;;;;;4976656;28;20030;-72
2022/01/02 07:49:48;;;;;;;13.25;3.17;;;27.80;92.30;;;;;;4975982;28;20519;-71
2022/01/02 07:52:15;;;;;;;11.82;2.45;;;27.70;92.20;;;;;;4975938;28;20476;-72
2022/01/02 07:54:42;;;;;;;12.70;2.17;;;27.70;92.20;;;;;;4976528;28;20018;-72
2022/01/02 07:57:09;;;;;;;13.30;2.13;;;27.60;92.00;;;;;;4976474;28;20027;-70
2022/01/02 07:59:37;;;;;;;8.95;1.95;;;27.40;91.90;;;;;;4976315;28;20019;-71
2022/01/02 08:02:04;;;;;;;11.15;2.13;;;27.20;92.30;;;;;;4976337;28;20101;-71
2022/01/02 08:04:31;;;;;;;10.82;1.40;;;27.20;91.80;;;;;;4976091;28;20034;-71
2022/01/02 08:06:59;;;;;;;9.18;1.80;;;27.10;91.90;;;;;;4975972;28;20015;-72
2022/01/02 08:09:26;;;;;;;12.90;2.60;;;27.00;92.50;;;;;;4975858;28;20085;-72
2022/01/02 08:11:53;;;;;;;10.48;1.85;;;27.10;93.20;;;;;;4975842;28;20038;-72
2022/01/02 08:14:21;;;;;;;10.57;2.35;;;27.10;93.30;;;;;;4975828;28;20446;-72
2022/01/02 08:16:49;;;;;;;13.45;2.15;;;27.00;93.70;;;;;;4975815;28;20387;-72
2022/01/02 08:19:16;;;;;;;14.55;1.67;;;27.00;93.50;;;;;;4975819;28;20030;-74
2022/01/02 08:21:44;;;;;;;11.30;2.00;;;26.90;93.80;;;;;;4975627;28;20479;-71
2022/01/02 08:24:11;;;;;;;12.52;2.45;;;26.80;94.00;;;;;;4975530;28;20047;-72
2022/01/02 08:26:39;;;;;;;11.82;1.85;;;26.70;94.20;;;;;;4975575;28;20033;-72
2022/01/02 08:29:06;;;;;;;12.15;2.78;;;26.70;94.30;;;;;;4975629;28;20419;-74
2022/01/02 08:31:34;;;;;;;19.45;2.70;;;26.50;94.70;;;;;;4975435;28;20384;-72
2022/01/02 08:34:01;;;;;;;13.07;2.67;;;26.40;94.90;;;;;;4975712;28;20383;-72
2022/01/02 08:36:28;;;;;;;14.60;1.85;;;26.40;95.00;;;;;;4975645;28;20015;-72
2022/01/02 08:38:56;;;;;;;10.68;2.10;;;26.30;95.10;;;;;;4975431;28;20073;-71
2022/01/02 08:41:23;;;;;;;14.38;3.03;;;26.10;95.60;;;;;;4975637;28;20059;-73
2022/01/02 08:43:50;;;;;;;15.32;3.10;;;26.00;95.90;;;;;;4975343;28;20027;-72
2022/01/02 08:46:18;;;;;;;13.18;2.42;;;25.90;96.30;;;;;;4975644;28;20423;-71
2022/01/02 08:48:45;;;;;;;15.82;3.03;;;25.80;96.60;;;;;;4975250;28;20023;-71
2022/01/02 08:51:12;;;;;;;14.63;2.45;;;25.70;97.00;;;;;;4974939;28;20035;-72
2022/01/02 08:53:40;;;;;;;12.98;2.92;;;25.70;97.10;;;;;;4974882;28;20498;-71
2022/01/02 08:56:08;;;;;;;12.70;2.10;;;25.60;97.30;;;;;;4975376;28;20364;-71
2022/01/02 08:58:35;;;;;;;13.63;2.13;;;25.60;97.40;;;;;;4974401;28;20379;-71
2022/01/02 09:01:03;;;;;;;17.35;3.40;;;25.50;97.40;;;;;;4975148;28;20482;-71
2022/01/02 09:03:31;;;;;;;14.38;2.35;;;25.60;97.50;;;;;;4975157;28;20023;-73
2022/01/02 09:05:58;;;;;;;11.30;2.20;;;25.50;97.50;;;;;;4975091;28;20014;-71
2022/01/02 09:08:26;;;;;;;16.55;3.58;;;25.50;97.60;;;;;;4974868;28;20037;-72
2022/01/02 09:10:53;;;;;;;12.98;2.35;;;25.40;97.50;;;;;;4974782;28;20543;-70
2022/01/02 09:13:23;;;;;;;14.35;3.00;;;25.40;97.80;;;;;;4975027;28;20492;-71
2022/01/02 09:15:51;;;;;;;15.95;2.80;;;25.30;98.30;;;;;;4975080;28;20388;-71
2022/01/02 09:18:18;;;;;;;11.88;2.75;;;25.30;98.60;;;;;;4975279;28;20030;-71
2022/01/02 09:20:46;;;;;;;20.73;3.95;;;25.30;98.90;;;;;;4974722;28;20106;-71
2022/01/02 09:23:13;;;;;;;16.88;2.33;;;25.20;99.30;;;;;;4974836;28;20106;-71
2022/01/02 09:25:40;;;;;;;18.08;3.28;;;25.10;99.40;;;;;;4974652;28;20045;-72
2022/01/02 09:28:08;;;;;;;14.43;2.60;;;25.10;99.80;;;;;;4975156;28;20030;-71
2022/01/02 09:30:35;;;;;;;18.13;2.63;;;25.10;99.90;;;;;;4974693;28;20033;-73
2022/01/02 09:33:08;;;;;;;13.57;2.90;;;25.10;99.90;;;;;;4974701;28;20035;-73
2022/01/02 09:35:37;;;;;;;12.90;2.42;;;25.10;99.90;;;;;;4974859;28;20027;-72
2022/01/02 09:38:05;;;;;;;21.40;4.00;;;25.00;99.90;;;;;;4974853;28;20022;-74
2022/01/02 09:40:32;;;;;;;17.67;3.13;;;24.90;99.90;;;;;;4974790;28;20023;-73
2022/01/02 09:43:02;;;;;;;20.98;3.53;;;24.90;99.90;;;;;;4974639;28;20038;-71
2022/01/02 09:45:33;;;;;;;12.77;3.33;;;24.90;99.90;;;;;;4974750;28;20380;-73
2022/01/02 09:48:02;;;;;;;12.98;2.85;;;24.90;99.90;;;;;;4975767;28;20027;-71
2022/01/02 09:50:31;;;;;;;18.80;2.38;;;24.90;99.90;;;;;;4975644;28;20031;-76
2022/01/02 09:52:59;;;;;;;17.70;2.70;;;24.90;99.90;;;;;;4974744;28;20035;-72
2022/01/02 09:55:26;;;;;;;15.27;2.63;;;24.90;99.90;;;;;;4975002;28;20082;-72
2022/01/02 09:57:58;;;;;;;20.30;3.50;;;24.90;99.90;;;;;;4976135;28;20471;-73
2022/01/02 10:00:27;;;;;;;20.48;2.85;;;24.80;99.90;;;;;;4975839;28;20034;-73
2022/01/02 10:03:08;;;;;;;14.48;2.50;;;24.80;99.90;;;;;;4975862;28;20054;-72
2022/01/02 10:05:54;;;;;;;12.68;1.88;;;24.80;99.90;;;;;;4974643;28;20022;-74
2022/01/02 10:08:27;;;;;;;17.52;2.80;;;24.80;99.90;;;;;;4974063;28;20037;-73
2022/01/02 10:11:03;;;;;;;15.05;2.30;;;24.70;99.90;;;;;;4974032;28;20042;-73
2022/01/02 10:13:44;;;;;;;16.70;3.80;;;24.80;99.90;;;;;;4973905;28;20034;-72
2022/01/02 10:16:34;;;;;;;18.17;3.22;;;24.80;99.90;;;;;;4973895;28;20027;-72
2022/01/02 10:19:18;;;;;;;20.77;3.00;;;24.80;99.90;;;;;;4973998;28;20030;-73
2022/01/02 10:21:56;;;;;;;19.52;3.47;;;24.80;99.90;;;;;;4973951;28;20074;-71
2022/01/02 10:24:27;;;;;;;18.85;3.45;;;24.70;99.90;;;;;;4973611;28;20055;-71
2022/01/02 10:27:16;;;;;;;15.88;2.85;;;24.70;99.90;;;;;;4973781;28;20030;-71
2022/01/02 10:29:58;;;;;;;21.27;2.88;;;24.70;99.90;;;;;;4972680;28;20126;-71
2022/01/02 10:32:43;;;;;;;21.70;3.10;;;24.70;99.90;;;;;;4971903;28;20089;-71
2022/01/02 10:35:17;;;;;;;18.25;3.70;;;24.60;99.90;;;;;;4973223;28;20033;-70
2022/01/02 10:37:55;;;;;;;18.73;3.20;;;24.60;99.90;;;;;;4972967;28;20514;-72
2022/01/02 10:40:33;;;;;;;15.32;2.97;;;24.60;99.90;;;;;;4973216;28;20225;-71
2022/01/02 10:43:22;;;;;;;13.70;3.75;;;24.50;99.90;;;;;;4973486;28;20050;-71
2022/01/02 10:45:50;;;;;;;15.45;3.30;;;24.50;99.90;;;;;;4973467;28;20022;-70
2022/01/02 10:48:38;;;;;;;23.67;3.78;;;24.50;99.90;;;;;;4973475;28;20058;-70
2022/01/02 10:51:15;;;;;;;14.60;3.00;;;24.40;99.90;;;;;;4973207;28;20030;-72
2022/01/02 10:53:59;;;;;;;17.42;3.47;;;24.30;99.90;;;;;;4973404;28;20125;-71
2022/01/02 10:56:31;;;;;;;18.60;3.88;;;24.30;99.90;;;;;;4972158;28;20118;-72
2022/01/02 10:59:02;;;;;;;27.05;3.58;;;24.40;99.90;;;;;;4973414;28;20126;-72
2022/01/02 11:01:30;;;;;;;14.43;2.95;;;24.40;99.90;;;;;;4973469;28;20151;-71
2022/01/02 11:03:59;;;;;;;24.92;5.13;;;24.40;99.90;;;;;;4973656;28;20069;-71
2022/01/02 11:06:33;;;;;;;15.18;2.63;;;24.30;99.90;;;;;;4973443;28;20069;-72
2022/01/02 11:09:01;;;;;;;15.70;3.03;;;24.30;99.90;;;;;;4972736;28;20022;-71
2022/01/02 11:11:29;;;;;;;21.08;3.58;;;24.30;99.90;;;;;;4972707;28;20027;-70
2022/01/02 11:13:57;;;;;;;13.88;3.40;;;24.30;99.90;;;;;;4971610;28;20058;-71
2022/01/02 11:16:25;;;;;;;19.65;3.17;;;24.20;99.90;;;;;;4973334;28;20023;-71
2022/01/02 11:18:53;;;;;;;16.30;3.10;;;24.20;99.90;;;;;;4973331;28;20038;-72
2022/01/02 11:21:24;;;;;;;20.52;2.95;;;24.20;99.90;;;;;;4974724;28;20019;-71
2022/01/02 11:24:10;;;;;;;13.13;2.30;;;24.20;99.90;;;;;;4977362;28;20050;-71
2022/01/02 11:27:12;;;;;;;12.35;2.50;;;24.20;99.90;;;;;;4973190;28;20039;-71
2022/01/02 11:29:39;;;;;;;16.23;3.23;;;24.10;99.90;;;;;;4977339;28;20026;-72
2022/01/02 11:32:31;;;;;;;13.95;2.60;;;24.10;99.90;;;;;;4976912;28;20492;-71
2022/01/02 11:34:58;;;;;;;15.43;2.63;;;24.10;99.90;;;;;;4976894;28;20491;-71
2022/01/02 11:37:27;;;;;;;15.32;3.17;;;24.20;99.90;;;;;;4976990;28;20058;-70
2022/01/02 11:40:00;;;;;;;15.38;2.92;;;24.10;99.90;;;;;;4977054;28;20030;-71
2022/01/02 11:42:41;;;;;;;17.60;2.90;;;24.10;99.90;;;;;;4976550;28;20030;-72
2022/01/02 11:45:10;;;;;;;20.23;3.00;;;24.10;99.90;;;;;;4976712;28;20034;-73
2022/01/02 11:47:47;;;;;;;16.08;2.90;;;24.00;99.90;;;;;;4976817;28;20050;-72
2022/01/02 11:50:36;;;;;;;19.00;3.40;;;24.00;99.90;;;;;;4976465;28;20019;-71
2022/01/02 11:53:25;;;;;;;20.17;3.30;;;24.00;99.90;;;;;;4976679;28;20030;-71
2022/01/02 11:55:54;;;;;;;20.77;3.88;;;24.00;99.90;;;;;;4976689;28;20023;-71
2022/01/02 11:58:46;;;;;;;22.30;3.80;;;24.00;99.90;;;;;;4976214;28;20030;-71
2022/01/02 12:01:49;;;;;;;13.60;2.33;;;24.00;99.90;;;;;;4976226;28;20031;-70
2022/01/02 12:04:17;;;;;;;15.40;4.07;;;24.00;99.90;;;;;;4976371;28;20026;-71
2022/01/02 12:06:45;;;;;;;15.73;3.05;;;24.00;99.90;;;;;;4976019;28;20103;-70
2022/01/02 12:09:36;;;;;;;14.98;2.83;;;24.00;99.90;;;;;;4967359;28;20489;-71
2022/01/02 12:12:06;;;;;;;16.70;2.83;;;24.00;99.90;;;;;;4966174;28;20034;-71
2022/01/02 12:14:51;;;;;;;20.23;3.15;;;24.00;99.90;;;;;;4965401;28;20050;-76
2022/01/02 12:17:23;;;;;;;20.33;3.92;;;24.00;99.90;;;;;;4966384;28;20019;-70
2022/01/02 12:20:05;;;;;;;17.85;2.65;;;23.90;99.90;;;;;;4964999;28;20038;-71
2022/01/02 12:22:48;;;;;;;16.67;3.33;;;23.90;99.90;;;;;;4964971;28;20027;-72
2022/01/02 12:25:18;;;;;;;18.63;3.08;;;23.90;99.90;;;;;;4965368;28;20057;-71
2022/01/02 12:27:55;;;;;;;17.02;4.00;;;23.90;99.90;;;;;;4964716;28;20027;-72
2022/01/02 12:30:24;;;;;;;18.77;3.17;;;23.90;99.90;;;;;;4956581;28;20027;-71
2022/01/02 12:32:52;;;;;;;14.93;2.22;;;23.90;99.90;;;;;;4954973;28;20432;-71
2022/01/02 12:35:20;;;;;;;24.70;3.67;;;23.90;99.90;;;;;;4956195;28;20504;-71
2022/01/02 12:38:02;;;;;;;17.73;2.90;;;23.90;99.90;;;;;;4955999;28;20062;-71
2022/01/02 12:40:37;;;;;;;20.52;4.13;;;23.90;99.90;;;;;;4955192;28;20431;-71
2022/01/02 12:43:05;;;;;;;19.58;2.72;;;23.90;99.90;;;;;;4956548;28;20078;-70
2022/01/02 12:45:32;;;;;;;17.40;2.72;;;23.90;99.90;;;;;;4956019;28;20028;-71
2022/01/02 12:47:59;;;;;;;11.75;2.88;;;23.80;99.90;;;;;;4955817;28;20428;-71
2022/01/02 12:50:29;;;;;;;20.83;3.30;;;23.90;99.90;;;;;;4956135;28;20047;-71
2022/01/02 12:52:58;;;;;;;18.38;3.60;;;23.90;99.90;;;;;;4956160;28;20052;-72
2022/01/02 12:55:28;;;;;;;22.60;3.47;;;23.90;99.90;;;;;;4956191;28;20491;-70
2022/01/02 12:58:07;;;;;;;18.73;3.30;;;23.90;99.90;;;;;;4955929;28;20026;-70
2022/01/02 13:00:35;;;;;;;21.63;3.63;;;23.90;99.90;;;;;;4955988;28;20027;-70
2022/01/02 13:03:02;;;;;;;20.40;2.53;;;23.90;99.90;;;;;;4954853;28;20075;-70
2022/01/02 13:05:30;;;;;;;22.40;3.60;;;23.90;99.90;;;;;;4955679;28;20053;-71
2022/01/02 13:08:01;;;;;;;17.85;3.03;;;23.90;99.90;;;;;;4955681;28;20038;-70
2022/01/02 13:10:29;;;;;;;14.50;2.40;;;24.00;99.90;;;;;;4955454;28;20027;-71
2022/01/02 13:13:00;;;;;;;16.00;3.13;;;23.90;99.90;;;;;;4954462;28;20301;-70
2022/01/02 13:15:27;;;;;;;13.98;1.92;;;24.00;99.90;;;;;;4955830;28;20019;-71
2022/01/02 13:17:58;;;;;;;12.88;2.25;;;24.00;99.90;;;;;;4955742;28;20504;-72
2022/01/02 13:20:31;;;;;;;14.70;1.92;;;24.00;99.90;;;;;;4955408;28;20027;-72
2022/01/02 13:22:58;;;;;;;24.85;3.45;;;24.20;99.90;;;;;;4955377;28;20668;-72
2022/01/02 13:25:41;;;;;;;12.15;2.17;;;24.20;99.90;;;;;;4955220;28;20055;-73
2022/01/02 13:28:12;;;;;;;14.98;2.20;;;24.20;99.90;;;;;;4955147;28;20457;-71
2022/01/02 13:30:51;;;;;;;16.33;2.50;;;24.30;99.90;;;;;;4955513;28;20058;-71